Time;durP1;ratioP1;P1;durP2;ratioP2;P2;SDS_P1;SDS_P2;PMS_P1;PMS_P2;Temp;Humidity;BMP_temperature;BMP_pressure;BME280_temperature;BME280_humidity;BME280_pressure;Samples;Min_cycle;Max_cycle;Signal;HPM_P1;HPM_P2
2022/10/04 00:02:13;;;;;;;18.83;8.50;;;12.20;99.90;;;;;;5137082;27;20497;-63
2022/10/04 00:04:44;;;;;;;23.60;9.88;;;12.20;99.90;;;;;;5120642;27;20051;-62
2022/10/04 00:07:16;;;;;;;18.60;8.27;;;12.30;99.90;;;;;;5120407;27;20366;-63
2022/10/04 00:09:47;;;;;;;19.75;10.05;;;12.30;99.90;;;;;;5120756;27;20136;-63
2022/10/04 00:12:39;;;;;;;20.50;8.23;;;12.30;99.90;;;;;;5119981;27;20081;-62
2022/10/04 00:15:19;;;;;;;18.10;8.27;;;12.30;99.90;;;;;;5118840;27;20504;-62
2022/10/04 00:18:17;;;;;;;14.70;7.97;;;12.30;99.90;;;;;;5120408;27;20133;-63
2022/10/04 00:20:54;;;;;;;16.33;7.80;;;12.30;99.90;;;;;;5099639;27;20130;-63
2022/10/04 00:23:41;;;;;;;21.40;8.23;;;12.30;99.90;;;;;;5119324;27;20042;-63
2022/10/04 00:26:22;;;;;;;21.20;6.85;;;12.30;99.90;;;;;;5137062;27;20155;-63
2022/10/04 00:28:49;;;;;;;13.95;7.88;;;12.30;99.90;;;;;;5119626;27;20064;-63
2022/10/04 00:31:16;;;;;;;17.52;7.32;;;12.30;99.90;;;;;;5120111;27;20056;-63
2022/10/04 00:33:52;;;;;;;14.88;7.55;;;12.40;99.90;;;;;;5139064;27;20019;-63
2022/10/04 00:36:39;;;;;;;13.65;7.50;;;12.40;99.90;;;;;;5119333;27;20043;-63
2022/10/04 00:39:08;;;;;;;13.65;7.25;;;12.40;99.90;;;;;;5138049;27;20127;-63
2022/10/04 00:41:47;;;;;;;17.33;6.88;;;12.30;99.90;;;;;;5136750;27;20138;-63
2022/10/04 00:44:40;;;;;;;15.73;7.15;;;12.30;99.90;;;;;;5115215;27;20208;-63
2022/10/04 00:47:33;;;;;;;17.95;7.20;;;12.30;99.90;;;;;;5117458;27;20035;-63
2022/10/04 00:50:18;;;;;;;15.35;8.00;;;12.30;99.90;;;;;;5118814;27;20424;-63
2022/10/04 00:52:50;;;;;;;15.63;7.15;;;12.30;99.90;;;;;;5136382;27;20471;-63
2022/10/04 00:55:40;;;;;;;14.02;6.55;;;12.30;99.90;;;;;;5135859;27;20030;-63
2022/10/04 00:58:14;;;;;;;;;;;12.30;99.90;;;;;;5117447;27;20038;-63
2022/10/04 01:00:42;;;;;;;15.07;7.15;;;12.30;99.90;;;;;;5114761;27;19937;-63
2022/10/04 01:03:29;;;;;;;15.45;7.07;;;12.30;99.90;;;;;;5096822;27;20039;-63
2022/10/04 01:06:04;;;;;;;17.40;7.60;;;12.30;99.90;;;;;;5115384;27;20035;-63
2022/10/04 01:08:59;;;;;;;18.77;7.75;;;12.30;99.90;;;;;;5132810;27;20175;-63
2022/10/04 01:11:33;;;;;;;12.63;6.47;;;12.30;99.90;;;;;;5131303;27;20394;-63
2022/10/04 01:14:10;;;;;;;13.85;7.40;;;12.30;99.90;;;;;;5113996;27;20058;-64
2022/10/04 01:16:37;;;;;;;17.10;6.50;;;12.30;99.90;;;;;;5134905;27;20498;-63
2022/10/04 01:19:35;;;;;;;12.57;6.60;;;12.20;99.90;;;;;;5133822;27;20048;-63
2022/10/04 01:22:04;;;;;;;15.05;7.85;;;12.20;99.90;;;;;;5077985;27;20054;-63
2022/10/04 01:24:37;;;;;;;16.10;7.45;;;12.20;99.90;;;;;;5134737;27;20622;-64
2022/10/04 01:27:24;;;;;;;17.65;6.45;;;12.10;99.90;;;;;;5134843;27;20402;-63
2022/10/04 01:29:51;;;;;;;11.90;6.90;;;12.10;99.90;;;;;;5133071;27;20035;-63
2022/10/04 01:32:17;;;;;;;14.30;7.63;;;12.20;99.90;;;;;;5116357;27;20035;-63
2022/10/04 01:34:43;;;;;;;17.55;7.35;;;12.10;99.90;;;;;;5134868;27;20035;-63
2022/10/04 01:37:09;;;;;;;15.60;8.45;;;12.10;99.90;;;;;;5133463;27;20512;-63
2022/10/04 01:39:35;;;;;;;21.63;8.43;;;12.10;99.90;;;;;;5126965;27;20086;-63
2022/10/04 01:42:19;;;;;;;16.38;7.10;;;12.10;99.90;;;;;;5133241;27;20470;-62
2022/10/04 01:45:03;;;;;;;16.55;7.97;;;12.10;99.90;;;;;;5131414;27;20039;-63
2022/10/04 01:47:54;;;;;;;14.90;6.90;;;12.10;99.90;;;;;;5128829;27;20051;-63
2022/10/04 01:50:28;;;;;;;15.55;8.07;;;12.00;99.90;;;;;;5130001;27;20039;-63
2022/10/04 01:53:05;;;;;;;12.48;7.38;;;11.90;99.90;;;;;;5132347;27;20100;-63
2022/10/04 01:55:39;;;;;;;18.70;7.32;;;11.80;99.90;;;;;;5132343;27;20047;-63
2022/10/04 01:58:12;;;;;;;16.30;7.53;;;11.80;99.90;;;;;;5133043;27;20117;-63
2022/10/04 02:00:46;;;;;;;13.85;7.30;;;11.70;99.90;;;;;;5132490;27;20039;-63
2022/10/04 02:03:32;;;;;;;19.85;8.43;;;11.60;99.90;;;;;;5134308;27;20547;-64
2022/10/04 02:06:02;;;;;;;20.00;8.20;;;11.60;99.90;;;;;;5132834;27;20473;-62
2022/10/04 02:08:32;;;;;;;;;;;11.50;99.90;;;;;;5133654;27;20035;-63
2022/10/04 02:11:00;;;;;;;12.85;7.80;;;11.50;99.90;;;;;;5132609;27;19998;-63
2022/10/04 02:13:34;;;;;;;17.10;8.18;;;11.40;99.90;;;;;;5131536;27;20096;-62
2022/10/04 02:16:01;;;;;;;18.67;8.88;;;11.30;99.90;;;;;;5131483;27;20031;-63
2022/10/04 02:18:30;;;;;;;20.75;9.02;;;11.20;99.90;;;;;;5132644;27;20047;-62
2022/10/04 02:20:57;;;;;;;18.85;9.35;;;11.20;99.90;;;;;;5133540;27;20047;-62
2022/10/04 02:23:23;;;;;;;20.45;9.50;;;11.10;99.90;;;;;;5132573;27;20039;-63
2022/10/04 02:25:50;;;;;;;17.05;10.77;;;11.10;99.90;;;;;;5133910;27;20102;-62
2022/10/04 02:28:17;;;;;;;18.20;9.75;;;11.00;99.90;;;;;;5132770;27;20043;-63
2022/10/04 02:33:42;;;;;;;16.23;9.07;;;10.90;99.90;;;;;;5131771;27;20127;-62
2022/10/04 02:36:09;;;;;;;21.25;9.38;;;10.90;99.90;;;;;;5133879;27;20046;-63
2022/10/04 02:38:52;;;;;;;19.08;9.95;;;10.80;99.90;;;;;;5131858;27;20100;-63
2022/10/04 02:41:30;;;;;;;22.10;10.38;;;10.70;99.90;;;;;;5133694;27;20113;-63
2022/10/04 02:44:03;;;;;;;16.40;10.32;;;10.70;99.90;;;;;;5129440;27;20425;-62
2022/10/04 02:46:34;;;;;;;17.52;9.93;;;10.60;99.90;;;;;;5132953;27;20071;-62
2022/10/04 02:49:05;;;;;;;20.25;10.25;;;10.50;99.90;;;;;;5132848;27;20035;-62
2022/10/04 02:51:43;;;;;;;22.55;11.02;;;10.50;99.90;;;;;;5133090;27;20102;-62
2022/10/04 02:54:34;;;;;;;24.65;11.95;;;10.40;99.90;;;;;;5131780;27;20047;-63
2022/10/04 02:57:00;;;;;;;21.63;10.68;;;10.40;99.90;;;;;;5132801;27;20077;-62
2022/10/04 02:59:27;;;;;;;24.05;13.55;;;10.40;99.90;;;;;;5132115;27;20046;-63
2022/10/04 03:02:00;;;;;;;18.73;11.55;;;10.40;99.90;;;;;;5132161;27;20046;-63
2022/10/04 03:04:29;;;;;;;22.50;12.70;;;10.40;99.90;;;;;;5132819;27;20078;-63
2022/10/04 03:07:01;;;;;;;27.70;13.68;;;10.50;99.90;;;;;;5133090;27;20047;-62
2022/10/04 03:09:27;;;;;;;20.52;12.45;;;10.40;99.90;;;;;;5132884;27;20046;-62
2022/10/04 03:11:55;;;;;;;23.65;13.18;;;10.40;99.90;;;;;;5130842;27;20031;-63
2022/10/04 03:14:27;;;;;;;24.42;13.20;;;10.50;99.90;;;;;;5129577;27;20035;-63
2022/10/04 03:16:56;;;;;;;26.17;13.98;;;10.50;99.90;;;;;;5133075;27;20027;-63
2022/10/04 03:19:25;;;;;;;28.17;14.25;;;10.40;99.90;;;;;;5131776;27;20031;-63
2022/10/04 03:21:54;;;;;;;24.05;13.32;;;10.50;99.90;;;;;;5114412;27;20038;-63
2022/10/04 03:24:38;;;;;;;22.02;12.93;;;10.40;99.90;;;;;;5131677;27;20031;-63
2022/10/04 03:27:13;;;;;;;26.67;14.18;;;10.40;99.90;;;;;;5132407;27;20390;-62
2022/10/04 03:29:42;;;;;;;29.13;14.20;;;10.40;99.90;;;;;;5131283;27;20041;-62
2022/10/04 03:32:15;;;;;;;28.13;11.77;;;10.40;99.90;;;;;;5131028;27;20080;-62
2022/10/04 03:34:47;;;;;;;26.80;13.00;;;10.40;99.90;;;;;;5113019;27;20934;-62
2022/10/04 03:37:16;;;;;;;29.80;13.77;;;10.30;99.90;;;;;;5130874;27;20490;-63
2022/10/04 03:39:45;;;;;;;24.63;13.50;;;10.30;99.90;;;;;;5131962;27;20440;-62
2022/10/04 03:42:33;;;;;;;24.05;12.18;;;10.20;99.90;;;;;;5130614;27;20122;-62
2022/10/04 03:45:04;;;;;;;23.80;13.02;;;10.20;99.90;;;;;;5131529;27;20080;-62
2022/10/04 03:47:34;;;;;;;24.92;13.35;;;10.20;99.90;;;;;;5113640;27;20066;-62
2022/10/04 03:50:15;;;;;;;22.60;13.10;;;10.10;99.90;;;;;;5132335;27;20035;-62
2022/10/04 03:52:54;;;;;;;25.25;13.60;;;10.10;99.90;;;;;;5130757;27;20023;-63
2022/10/04 03:55:23;;;;;;;29.38;14.45;;;10.10;99.90;;;;;;5130373;27;20436;-62
2022/10/04 03:57:49;;;;;;;26.85;13.13;;;10.10;99.90;;;;;;5112303;27;20112;-63
2022/10/04 04:00:18;;;;;;;26.45;14.43;;;10.00;99.90;;;;;;5130783;27;20498;-63
2022/10/04 04:03:00;;;;;;;24.23;14.30;;;10.00;99.90;;;;;;5131557;27;20557;-63
2022/10/04 04:05:43;;;;;;;25.52;14.73;;;10.00;99.90;;;;;;5129610;27;20385;-62
2022/10/04 04:08:27;;;;;;;24.85;13.82;;;10.10;99.90;;;;;;5147726;27;20046;-62
2022/10/04 04:10:56;;;;;;;23.92;13.88;;;10.10;99.90;;;;;;5130372;27;20035;-64
2022/10/04 04:13:48;;;;;;;20.65;13.88;;;10.10;99.90;;;;;;5127835;27;20042;-63
2022/10/04 04:16:14;;;;;;;27.83;13.98;;;10.10;99.90;;;;;;5132019;27;20031;-62
2022/10/04 04:18:43;;;;;;;27.63;15.00;;;10.10;99.90;;;;;;5130629;27;20389;-63
2022/10/04 04:21:15;;;;;;;24.40;13.95;;;10.10;99.90;;;;;;5131711;27;20096;-63
2022/10/04 04:23:50;;;;;;;25.63;13.35;;;10.00;99.90;;;;;;5131746;27;20486;-62
2022/10/04 04:26:41;;;;;;;24.52;14.23;;;10.00;99.90;;;;;;5130765;28;20084;-63
2022/10/04 04:29:09;;;;;;;24.60;13.90;;;10.00;99.90;;;;;;5130182;28;20041;-62
2022/10/04 04:31:56;;;;;;;29.27;16.38;;;9.90;99.90;;;;;;5130347;28;20126;-63
2022/10/04 04:34:31;;;;;;;30.55;15.05;;;9.90;99.90;;;;;;5131081;28;20192;-63
2022/10/04 04:37:01;;;;;;;28.25;15.93;;;10.00;99.90;;;;;;5129220;28;20127;-63
2022/10/04 04:39:43;;;;;;;30.02;17.13;;;10.00;99.90;;;;;;5129998;28;20044;-63
2022/10/04 04:42:09;;;;;;;27.35;15.73;;;9.90;99.90;;;;;;5131166;28;20435;-62
2022/10/04 04:44:49;;;;;;;26.60;15.52;;;10.00;99.90;;;;;;5127949;28;20112;-62
2022/10/04 04:47:43;;;;;;;26.55;15.68;;;10.00;99.90;;;;;;5132423;27;20038;-63
2022/10/04 04:50:21;;;;;;;32.67;16.48;;;10.00;99.90;;;;;;5125075;27;20047;-62
2022/10/04 04:52:56;;;;;;;31.88;17.00;;;10.00;99.90;;;;;;5133400;27;20782;-62
2022/10/04 04:55:24;;;;;;;28.55;16.60;;;10.00;99.90;;;;;;5135256;27;20475;-62
2022/10/04 04:57:54;;;;;;;23.15;14.55;;;10.00;99.90;;;;;;5117028;27;20089;-63
2022/10/04 05:00:26;;;;;;;26.88;15.48;;;10.00;99.90;;;;;;5133781;27;20521;-63
2022/10/04 05:02:54;;;;;;;26.80;15.65;;;10.00;99.90;;;;;;5133990;27;20039;-62
2022/10/04 05:05:24;;;;;;;27.00;16.55;;;9.90;99.90;;;;;;5135307;27;20054;-63
2022/10/04 05:08:22;;;;;;;35.00;16.02;;;9.90;99.90;;;;;;5134932;27;20038;-62
2022/10/04 05:11:01;;;;;;;30.45;16.63;;;9.90;99.90;;;;;;5115401;27;20051;-62
2022/10/04 05:13:43;;;;;;;28.65;17.13;;;9.90;99.90;;;;;;5114801;27;20039;-63
2022/10/04 05:16:26;;;;;;;27.88;16.95;;;9.90;99.90;;;;;;5133736;27;20039;-62
2022/10/04 05:19:06;;;;;;;29.65;16.88;;;10.00;99.90;;;;;;5133172;27;20039;-63
2022/10/04 05:21:33;;;;;;;;;;;10.00;99.90;;;;;;5133013;27;20502;-64
2022/10/04 05:24:11;;;;;;;27.67;16.30;;;10.00;99.90;;;;;;5133696;27;19915;-63
2022/10/04 05:26:37;;;;;;;30.65;16.35;;;10.00;99.90;;;;;;5130351;27;21197;-63
2022/10/04 05:29:17;;;;;;;28.90;16.52;;;10.00;99.90;;;;;;5134989;27;20111;-62
2022/10/04 05:31:48;;;;;;;30.90;15.20;;;10.00;99.90;;;;;;5133659;27;20039;-63
2022/10/04 05:34:22;;;;;;;30.05;15.85;;;10.10;99.90;;;;;;5116313;27;20486;-63
2022/10/04 05:37:27;;;;;;;26.58;16.38;;;10.10;99.90;;;;;;5116240;27;20046;-64
2022/10/04 05:40:40;;;;;;;27.63;16.58;;;10.10;99.90;;;;;;5134172;27;20041;-64
2022/10/04 05:43:35;;;;;;;23.98;15.68;;;10.20;99.90;;;;;;5092624;27;20494;-63
2022/10/04 05:46:17;;;;;;;25.15;15.07;;;10.20;99.90;;;;;;5112019;27;20058;-63
2022/10/04 05:48:45;;;;;;;25.23;15.60;;;10.20;99.90;;;;;;5133404;27;20405;-63
2022/10/04 05:51:22;;;;;;;23.17;15.02;;;10.20;99.90;;;;;;5134472;27;20035;-63
2022/10/04 05:53:48;;;;;;;24.90;16.30;;;10.20;99.90;;;;;;5132829;27;20039;-63
2022/10/04 05:56:40;;;;;;;26.48;15.13;;;10.20;99.90;;;;;;5134267;27;20070;-62
2022/10/04 05:59:22;;;;;;;21.50;15.00;;;10.20;99.90;;;;;;5131983;27;20039;-63
2022/10/04 06:02:15;;;;;;;27.17;15.15;;;10.30;99.90;;;;;;5133099;27;20043;-63
2022/10/04 06:05:16;;;;;;;21.73;15.10;;;10.20;99.90;;;;;;5131712;27;20506;-63
2022/10/04 06:07:51;;;;;;;26.52;14.88;;;10.30;99.90;;;;;;5097738;27;20051;-63
2022/10/04 06:10:35;;;;;;;23.80;15.68;;;10.20;99.90;;;;;;5115576;27;20042;-63
2022/10/04 06:13:13;;;;;;;27.80;16.55;;;10.20;99.90;;;;;;5132107;27;20042;-63
2022/10/04 06:16:03;;;;;;;23.65;14.80;;;10.20;99.90;;;;;;5118106;27;20122;-63
2022/10/04 06:18:35;;;;;;;25.48;16.48;;;10.30;99.90;;;;;;5113899;28;20048;-63
2022/10/04 06:21:18;;;;;;;27.63;15.63;;;10.30;99.90;;;;;;5113610;28;20042;-63
2022/10/04 06:24:14;;;;;;;22.75;15.52;;;10.30;99.90;;;;;;5095345;28;20502;-62
2022/10/04 06:26:50;;;;;;;26.35;15.63;;;10.30;99.90;;;;;;5113179;28;20047;-62
2022/10/04 06:29:26;;;;;;;18.42;13.73;;;10.40;99.90;;;;;;5112526;28;20039;-62
2022/10/04 06:32:28;;;;;;;25.85;15.02;;;10.40;99.90;;;;;;5114315;27;20390;-62
2022/10/04 06:35:16;;;;;;;27.02;16.05;;;10.40;99.90;;;;;;5134029;27;20042;-62
2022/10/04 06:38:07;;;;;;;25.02;13.98;;;10.50;99.90;;;;;;5131831;27;20593;-62
2022/10/04 06:40:54;;;;;;;21.15;13.63;;;10.50;99.90;;;;;;5132959;27;20035;-63
2022/10/04 06:43:43;;;;;;;26.10;14.18;;;10.60;99.90;;;;;;5131593;27;20043;-62
2022/10/04 06:50:23;;;;;;;19.40;13.73;;;10.70;99.90;;;;;;5134386;27;20038;-63
2022/10/04 06:53:06;;;;;;;20.92;14.63;;;10.70;99.90;;;;;;5132854;27;20065;-62
2022/10/04 06:55:45;;;;;;;19.33;14.25;;;10.80;99.90;;;;;;5134155;27;20056;-63
2022/10/04 06:58:20;;;;;;;24.10;14.77;;;10.80;99.90;;;;;;5132820;27;20054;-63
2022/10/04 07:01:01;;;;;;;26.95;15.07;;;10.70;99.90;;;;;;5133963;27;20043;-62
2022/10/04 07:03:38;;;;;;;20.15;14.23;;;10.70;99.90;;;;;;5134280;27;20042;-63
2022/10/04 07:06:10;;;;;;;22.98;15.60;;;10.70;99.90;;;;;;5134021;27;20031;-63
2022/10/04 07:08:46;;;;;;;24.05;14.95;;;10.70;99.90;;;;;;5132658;27;20035;-62
2022/10/04 07:11:23;;;;;;;21.13;15.40;;;10.70;99.90;;;;;;5130560;27;20057;-63
2022/10/04 07:14:09;;;;;;;21.95;15.63;;;10.80;99.90;;;;;;5130999;27;20035;-62
2022/10/04 07:16:54;;;;;;;22.02;14.45;;;10.90;99.90;;;;;;5131880;27;20042;-63
2022/10/04 07:19:20;;;;;;;22.02;14.38;;;11.00;99.90;;;;;;5131565;27;20035;-62
2022/10/04 07:22:18;;;;;;;25.15;14.38;;;11.20;99.90;;;;;;5130723;27;20079;-63
2022/10/04 07:25:09;;;;;;;21.88;14.15;;;11.40;99.90;;;;;;5115055;27;20063;-63
2022/10/04 07:27:43;;;;;;;24.23;14.95;;;11.60;99.90;;;;;;5113427;27;20493;-63
2022/10/04 07:30:19;;;;;;;19.15;13.25;;;11.80;99.90;;;;;;5111559;28;20698;-62
2022/10/04 07:32:52;;;;;;;18.80;13.10;;;11.90;99.90;;;;;;5115219;27;20071;-62
2022/10/04 07:35:43;;;;;;;23.30;13.23;;;12.10;99.90;;;;;;5113558;27;20359;-63
2022/10/04 07:38:22;;;;;;;21.98;13.77;;;12.10;99.90;;;;;;5111178;28;20064;-61
2022/10/04 07:40:57;;;;;;;19.48;12.25;;;12.20;99.90;;;;;;5094321;28;20085;-62
2022/10/04 07:43:29;;;;;;;18.63;12.77;;;12.20;99.90;;;;;;5109081;28;20043;-62
2022/10/04 07:46:23;;;;;;;20.75;13.77;;;12.20;99.90;;;;;;5111037;28;20087;-63
2022/10/04 07:48:49;;;;;;;20.33;12.18;;;12.30;99.90;;;;;;5110902;28;20035;-62
2022/10/04 07:51:40;;;;;;;19.58;12.82;;;12.50;99.90;;;;;;5111055;28;20035;-63
2022/10/04 07:54:23;;;;;;;19.90;12.70;;;12.60;99.90;;;;;;5111272;28;20038;-63
2022/10/04 07:57:29;;;;;;;19.67;12.38;;;12.80;99.90;;;;;;5110909;28;20036;-63
2022/10/04 08:00:11;;;;;;;21.45;12.68;;;13.00;99.90;;;;;;5083328;27;20051;-64
2022/10/04 08:02:48;;;;;;;18.52;12.63;;;13.10;99.90;;;;;;5120911;27;20172;-63
2022/10/04 08:05:20;;;;;;;18.83;11.38;;;13.30;99.90;;;;;;5113311;27;20070;-63
2022/10/04 08:08:20;;;;;;;16.90;11.27;;;13.50;99.90;;;;;;5128427;27;20169;-63
2022/10/04 08:11:05;;;;;;;15.95;10.18;;;14.00;99.90;;;;;;5112712;27;20092;-65
2022/10/04 08:13:55;;;;;;;16.73;10.05;;;14.60;99.90;;;;;;5111988;27;20125;-62
2022/10/04 08:16:39;;;;;;;15.13;9.80;;;15.10;99.90;;;;;;5112152;28;20044;-62
2022/10/04 08:19:32;;;;;;;14.07;9.45;;;15.40;99.90;;;;;;5116008;27;20038;-63
2022/10/04 08:22:22;;;;;;;14.02;9.63;;;15.40;99.90;;;;;;5129701;27;20081;-64
2022/10/04 08:24:57;;;;;;;;;;;15.60;99.90;;;;;;5132559;27;20043;-64
2022/10/04 08:29:41;;;;;;;15.20;9.35;;;15.70;99.90;;;;;;5132097;28;19941;-63
2022/10/04 08:31:09;;;;;;;14.88;9.15;;;15.70;99.90;;;;;;5126995;28;20484;-63
2022/10/04 08:34:07;;;;;;;11.27;8.52;;;15.50;99.90;;;;;;5130687;28;20475;-63
2022/10/04 08:36:52;;;;;;;12.82;8.30;;;15.30;99.90;;;;;;5125875;28;20362;-64
2022/10/04 08:39:23;;;;;;;15.63;9.32;;;15.30;99.90;;;;;;5128753;28;20035;-64
2022/10/04 08:42:25;;;;;;;9.90;7.78;;;15.30;99.90;;;;;;5110626;28;20035;-63
2022/10/04 08:45:06;;;;;;;16.05;8.98;;;15.30;99.90;;;;;;5115500;28;20356;-64
2022/10/04 08:48:21;;;;;;;15.40;8.48;;;15.60;99.90;;;;;;5101452;28;20487;-64
2022/10/04 08:51:21;;;;;;;13.82;8.10;;;16.10;99.90;;;;;;5129885;28;20088;-64
2022/10/04 08:54:12;;;;;;;12.65;7.57;;;16.70;99.90;;;;;;5131584;28;20473;-63
2022/10/04 08:56:50;;;;;;;12.45;7.30;;;17.20;99.90;;;;;;5112351;28;20105;-63
2022/10/04 09:00:07;;;;;;;10.05;6.95;;;17.60;99.90;;;;;;5104006;28;20457;-64
2022/10/04 09:02:45;;;;;;;12.38;7.47;;;18.20;99.90;;;;;;5103783;28;20050;-63
2022/10/04 09:05:39;;;;;;;11.85;7.70;;;18.60;99.90;;;;;;5129467;28;20077;-64
2022/10/04 09:08:10;;;;;;;13.95;7.43;;;18.80;99.90;;;;;;5130435;28;20042;-64
2022/10/04 09:10:49;;;;;;;11.15;6.15;;;18.80;99.90;;;;;;5113549;28;20035;-64
2022/10/04 09:13:57;;;;;;;10.80;6.90;;;19.10;99.90;;;;;;5128552;28;20027;-63
2022/10/04 09:16:52;;;;;;;13.40;7.00;;;19.40;99.90;;;;;;5112510;28;20100;-63
2022/10/04 09:19:32;;;;;;;10.50;8.02;;;19.40;99.90;;;;;;5123566;28;20455;-65
2022/10/04 09:22:13;;;;;;;9.63;6.72;;;19.50;99.90;;;;;;5109888;28;20494;-64
2022/10/04 09:24:51;;;;;;;13.30;7.25;;;19.80;99.90;;;;;;5128695;28;20411;-64
2022/10/04 09:27:55;;;;;;;13.77;7.30;;;20.10;99.90;;;;;;5129829;28;20289;-64
2022/10/04 09:30:32;;;;;;;11.02;6.72;;;20.40;99.90;;;;;;5128318;27;20069;-64
2022/10/04 09:33:07;;;;;;;12.52;7.63;;;20.80;99.90;;;;;;5130079;27;20110;-66
2022/10/04 09:35:48;;;;;;;11.02;7.25;;;21.00;99.90;;;;;;5135183;27;20394;-64
2022/10/04 09:38:32;;;;;;;10.82;6.82;;;21.10;99.90;;;;;;5134911;27;20146;-65
2022/10/04 09:41:19;;;;;;;13.32;7.60;;;21.20;99.90;;;;;;5134711;27;20517;-65
2022/10/04 09:44:00;;;;;;;12.70;7.38;;;21.50;99.90;;;;;;5131506;27;20126;-64
2022/10/04 09:47:03;;;;;;;10.43;7.63;;;21.50;99.90;;;;;;5132300;27;20043;-65
2022/10/04 09:49:50;;;;;;;13.38;7.70;;;21.40;99.90;;;;;;5133518;27;20100;-64
2022/10/04 09:52:35;;;;;;;12.00;7.40;;;21.30;99.90;;;;;;5133924;27;20385;-67
2022/10/04 09:55:03;;;;;;;11.38;8.20;;;21.40;99.90;;;;;;5133826;27;20035;-65
2022/10/04 09:57:38;;;;;;;10.82;7.20;;;21.30;99.90;;;;;;5133144;27;20088;-64
2022/10/04 10:00:21;;;;;;;11.38;7.45;;;21.00;99.90;;;;;;5133132;27;20045;-65
2022/10/04 10:03:19;;;;;;;10.63;7.50;;;20.90;99.90;;;;;;5130906;27;20520;-64
2022/10/04 10:06:13;;;;;;;11.32;7.00;;;20.80;99.90;;;;;;5061801;27;20580;-64
2022/10/04 10:08:53;;;;;;;13.43;8.15;;;20.50;99.90;;;;;;5116866;27;20069;-65
2022/10/04 10:14:54;;;;;;;9.80;6.45;;;20.90;99.90;;;;;;5121860;27;20043;-64
2022/10/04 10:17:44;;;;;;;9.25;6.43;;;21.10;99.90;;;;;;5115246;27;20031;-64
2022/10/04 10:20:34;;;;;;;8.63;6.78;;;21.30;99.90;;;;;;5118495;27;20546;-64
2022/10/04 10:23:18;;;;;;;11.23;7.03;;;21.60;99.90;;;;;;5115989;27;20082;-64
2022/10/04 10:26:03;;;;;;;8.23;6.80;;;21.70;99.90;;;;;;5135066;27;20455;-65
2022/10/04 10:29:07;;;;;;;9.13;6.88;;;21.80;99.90;;;;;;5133934;27;20078;-64
2022/10/04 10:32:14;;;;;;;11.02;8.07;;;21.90;99.90;;;;;;5034960;28;20052;-65
2022/10/04 10:35:13;;;;;;;10.88;7.20;;;22.10;99.90;;;;;;5035062;28;20029;-65
2022/10/04 10:38:09;;;;;;;9.88;6.57;;;22.10;99.90;;;;;;5132594;27;20043;-64
2022/10/04 10:41:09;;;;;;;12.43;6.93;;;22.40;99.90;;;;;;5113505;28;20031;-64
2022/10/04 10:43:35;;;;;;;;;;;22.60;99.90;;;;;;5094524;28;20043;-64
2022/10/04 10:46:48;;;;;;;9.88;7.35;;;22.40;99.90;;;;;;5114284;28;19926;-64
2022/10/04 10:49:28;;;;;;;8.63;7.65;;;22.30;99.90;;;;;;5084464;28;20109;-64
2022/10/04 10:52:09;;;;;;;10.75;7.40;;;22.30;99.90;;;;;;5113313;28;20031;-64
2022/10/04 10:54:54;;;;;;;11.63;7.28;;;22.60;99.90;;;;;;5116701;27;20043;-64
2022/10/04 10:57:35;;;;;;;11.32;7.60;;;22.70;99.90;;;;;;5095805;28;20047;-64
2022/10/04 11:00:22;;;;;;;13.52;7.68;;;22.00;99.00;;;;;;5112918;28;20036;-64
2022/10/04 11:03:06;;;;;;;12.48;7.15;;;21.40;99.90;;;;;;5112656;28;20134;-64
2022/10/04 11:06:12;;;;;;;11.15;7.75;;;21.30;99.90;;;;;;5146791;27;20054;-64
2022/10/04 11:09:03;;;;;;;13.30;7.90;;;21.20;99.90;;;;;;5136513;27;20066;-64
2022/10/04 11:11:47;;;;;;;11.95;8.18;;;20.90;99.90;;;;;;5155034;27;20042;-64
2022/10/04 11:15:06;;;;;;;12.82;8.07;;;20.30;99.90;;;;;;5151550;27;20037;-64
2022/10/04 11:18:03;;;;;;;9.32;7.10;;;20.20;99.90;;;;;;5053778;28;20113;-61
2022/10/04 11:20:38;;;;;;;12.63;7.65;;;20.10;99.90;;;;;;5070562;28;20033;-63
2022/10/04 11:23:20;;;;;;;14.95;7.82;;;19.90;99.90;;;;;;5127200;27;20035;-64
2022/10/04 11:25:51;;;;;;;13.35;8.32;;;19.60;99.90;;;;;;5153103;27;20081;-64
2022/10/04 11:28:34;;;;;;;11.52;7.82;;;19.60;99.90;;;;;;5153583;27;20477;-64
2022/10/04 11:31:28;;;;;;;10.77;7.95;;;19.50;99.90;;;;;;5132956;27;20038;-64
2022/10/04 11:34:26;;;;;;;7.53;6.03;;;19.40;99.90;;;;;;5132605;27;20043;-62
2022/10/04 11:37:02;;;;;;;11.32;6.65;;;19.30;99.90;;;;;;5130785;27;20130;-63
2022/10/04 11:39:43;;;;;;;13.15;7.45;;;19.00;99.90;;;;;;5132709;27;20100;-64
2022/10/04 11:42:28;;;;;;;10.90;7.28;;;19.00;99.90;;;;;;5132408;27;20039;-64
2022/10/04 11:45:16;;;;;;;11.60;6.93;;;19.00;99.90;;;;;;5132098;27;20122;-62
2022/10/04 11:48:10;;;;;;;12.10;7.05;;;19.00;99.90;;;;;;5132674;27;20039;-63
2022/10/04 11:50:54;;;;;;;11.82;7.32;;;18.80;99.90;;;;;;5133333;27;20043;-63
2022/10/04 11:54:02;;;;;;;10.32;6.13;;;18.50;99.90;;;;;;5132552;27;20441;-61
2022/10/04 11:56:55;;;;;;;11.52;7.57;;;18.40;99.90;;;;;;5112529;28;20504;-63
2022/10/04 11:59:46;;;;;;;11.65;7.50;;;18.50;99.90;;;;;;5111781;28;20506;-63
2022/10/04 12:02:44;;;;;;;12.25;7.25;;;18.70;99.90;;;;;;5111893;28;20130;-61
2022/10/04 12:05:49;;;;;;;14.68;7.75;;;19.00;99.90;;;;;;5111566;28;20058;-63
2022/10/04 12:08:32;;;;;;;12.13;7.97;;;19.40;99.90;;;;;;5111780;28;20040;-63
2022/10/04 12:12:35;;;;;;;13.13;8.18;;;19.30;99.90;;;;;;5128481;27;20047;-63
2022/10/04 12:14:32;;;;;;;14.10;7.53;;;19.20;99.90;;;;;;5130122;27;20051;-62
2022/10/04 12:17:10;;;;;;;13.37;8.53;;;19.00;99.90;;;;;;5133322;27;20058;-64
2022/10/04 12:19:53;;;;;;;11.00;7.18;;;18.90;99.90;;;;;;5133873;27;20039;-63
2022/10/04 12:22:31;;;;;;;11.95;7.25;;;18.90;99.90;;;;;;5132076;27;20078;-61
2022/10/04 12:25:25;;;;;;;11.30;6.97;;;19.00;99.90;;;;;;5130764;27;20050;-63
2022/10/04 12:28:29;;;;;;;9.48;6.53;;;18.90;99.90;;;;;;5111448;28;20558;-64
2022/10/04 12:31:11;;;;;;;12.70;7.30;;;18.90;99.90;;;;;;5129968;28;20077;-63
2022/10/04 12:34:02;;;;;;;11.57;7.30;;;18.90;99.90;;;;;;5131590;28;20639;-62
2022/10/04 12:36:36;;;;;;;16.25;8.15;;;18.80;99.90;;;;;;5131824;28;20051;-62
2022/10/04 12:39:08;;;;;;;8.68;7.28;;;18.70;99.90;;;;;;5131687;28;20074;-63
2022/10/04 12:41:40;;;;;;;11.93;7.65;;;18.50;99.90;;;;;;5133382;27;20551;-61
2022/10/04 12:44:29;;;;;;;9.98;6.80;;;18.50;99.90;;;;;;5129879;28;20085;-62
2022/10/04 12:46:55;;;;;;;13.80;6.75;;;18.40;99.90;;;;;;5131636;28;20117;-62
2022/10/04 12:49:39;;;;;;;10.25;6.88;;;18.20;99.90;;;;;;5132110;28;20405;-61
2022/10/04 12:52:26;;;;;;;8.45;6.20;;;18.00;99.90;;;;;;5132945;28;20528;-62
2022/10/04 12:55:29;;;;;;;13.00;6.88;;;17.80;99.90;;;;;;5132928;27;20042;-63
2022/10/04 12:58:02;;;;;;;8.90;6.93;;;17.90;99.90;;;;;;5131262;28;20118;-63
2022/10/04 13:00:34;;;;;;;12.82;6.75;;;18.00;99.90;;;;;;5131984;28;20070;-63
2022/10/04 13:03:29;;;;;;;9.93;6.47;;;17.90;99.90;;;;;;5133015;27;20031;-63
2022/10/04 13:06:06;;;;;;;11.13;6.30;;;17.90;99.90;;;;;;5132754;27;20039;-62
2022/10/04 13:08:58;;;;;;;11.60;6.32;;;17.90;99.90;;;;;;5135548;27;20051;-63
2022/10/04 13:11:34;;;;;;;10.43;6.50;;;17.80;99.90;;;;;;5088225;27;20047;-63
2022/10/04 13:14:27;;;;;;;10.93;6.57;;;17.90;99.90;;;;;;5131906;27;20126;-63
2022/10/04 13:17:25;;;;;;;12.27;5.97;;;18.10;99.90;;;;;;5134141;27;20039;-62
2022/10/04 13:19:54;;;;;;;12.52;6.38;;;18.30;99.90;;;;;;5134834;27;20498;-63
2022/10/04 13:22:44;;;;;;;9.18;5.07;;;18.30;99.90;;;;;;5126616;27;20047;-63
2022/10/04 13:25:20;;;;;;;8.90;5.95;;;18.30;99.90;;;;;;5114984;28;20428;-63
2022/10/04 13:28:12;;;;;;;7.55;5.13;;;18.20;99.90;;;;;;5114790;28;20051;-62
2022/10/04 13:31:03;;;;;;;11.77;5.20;;;18.20;99.90;;;;;;5126017;27;20104;-63
2022/10/04 13:33:50;;;;;;;8.63;5.50;;;18.10;99.90;;;;;;5136675;27;20533;-63
2022/10/04 13:36:28;;;;;;;9.32;6.28;;;18.00;99.90;;;;;;5135213;27;20042;-62
2022/10/04 13:39:08;;;;;;;8.38;5.25;;;17.90;99.90;;;;;;5136183;27;20043;-63
2022/10/04 13:41:49;;;;;;;7.88;5.30;;;17.90;99.90;;;;;;5118267;27;20639;-63
2022/10/04 13:44:44;;;;;;;10.30;5.70;;;17.80;99.90;;;;;;5116142;27;20391;-62
2022/10/04 13:47:22;;;;;;;8.27;5.30;;;17.70;99.90;;;;;;5133574;27;20035;-63
2022/10/04 13:50:22;;;;;;;7.50;5.43;;;17.60;99.90;;;;;;5129374;27;20061;-61
2022/10/04 13:56:38;;;;;;;9.77;4.75;;;17.50;99.90;;;;;;5114884;28;20130;-61
2022/10/04 13:59:13;;;;;;;8.13;4.93;;;17.40;99.90;;;;;;5089567;28;20055;-63
2022/10/04 14:02:12;;;;;;;9.15;5.82;;;17.40;99.90;;;;;;5115411;28;20047;-62
2022/10/04 14:04:56;;;;;;;11.18;6.03;;;17.40;99.90;;;;;;5114549;28;20506;-63